sensor_id;sensor_type;location;lat;lon;timestamp;temperature;humidity
4366;DHT22;2196;47.422;9.656;2022-08-27T00:00:57;18.80;99.90
4366;DHT22;2196;47.422;9.656;2022-08-27T00:03:25;18.80;99.90
4366;DHT22;2196;47.422;9.656;2022-08-27T00:05:52;18.80;99.90
4366;DHT22;2196;47.422;9.656;2022-08-27T00:08:19;18.80;99.90
4366;DHT22;2196;47.422;9.656;2022-08-27T00:10:46;18.80;99.90
4366;DHT22;2196;47.422;9.656;2022-08-27T00:13:13;18.80;99.90
4366;DHT22;2196;47.422;9.656;2022-08-27T00:15:41;18.80;99.90
4366;DHT22;2196;47.422;9.656;2022-08-27T00:18:10;18.70;99.90
4366;DHT22;2196;47.422;9.656;2022-08-27T00:20:39;18.70;99.90
4366;DHT22;2196;47.422;9.656;2022-08-27T00:23:06;18.80;99.90
4366;DHT22;2196;47.422;9.656;2022-08-27T00:25:33;18.70;99.90
4366;DHT22;2196;47.422;9.656;2022-08-27T00:28:00;18.60;99.90
4366;DHT22;2196;47.422;9.656;2022-08-27T00:30:27;18.60;99.90
4366;DHT22;2196;47.422;9.656;2022-08-27T00:32:54;18.60;99.90
4366;DHT22;2196;47.422;9.656;2022-08-27T00:35:22;18.60;99.90
4366;DHT22;2196;47.422;9.656;2022-08-27T00:37:50;18.50;99.90
4366;DHT22;2196;47.422;9.656;2022-08-27T00:40:20;18.50;99.90
4366;DHT22;2196;47.422;9.656;2022-08-27T00:42:47;18.50;99.90
4366;DHT22;2196;47.422;9.656;2022-08-27T00:45:17;18.40;99.90
4366;DHT22;2196;47.422;9.656;2022-08-27T00:47:47;18.40;99.90
4366;DHT22;2196;47.422;9.656;2022-08-27T00:50:17;18.30;99.90
4366;DHT22;2196;47.422;9.656;2022-08-27T00:52:47;18.30;99.90
4366;DHT22;2196;47.422;9.656;2022-08-27T00:55:20;18.40;99.90
4366;DHT22;2196;47.422;9.656;2022-08-27T00:57:52;18.40;99.90
4366;DHT22;2196;47.422;9.656;2022-08-27T01:00:22;18.40;99.90
4366;DHT22;2196;47.422;9.656;2022-08-27T01:02:49;18.40;99.90
4366;DHT22;2196;47.422;9.656;2022-08-27T01:05:18;18.40;99.90
4366;DHT22;2196;47.422;9.656;2022-08-27T01:07:49;18.40;99.90
4366;DHT22;2196;47.422;9.656;2022-08-27T01:10:20;18.40;99.90
4366;DHT22;2196;47.422;9.656;2022-08-27T01:12:48;18.40;99.90
4366;DHT22;2196;47.422;9.656;2022-08-27T01:15:17;18.40;99.90
4366;DHT22;2196;47.422;9.656;2022-08-27T01:17:45;18.40;99.90
4366;DHT22;2196;47.422;9.656;2022-08-27T01:20:18;18.40;99.90
4366;DHT22;2196;47.422;9.656;2022-08-27T01:22:52;18.40;99.90
4366;DHT22;2196;47.422;9.656;2022-08-27T01:25:24;18.40;99.90
4366;DHT22;2196;47.422;9.656;2022-08-27T01:27:54;18.40;99.90
4366;DHT22;2196;47.422;9.656;2022-08-27T01:30:22;18.30;99.90
4366;DHT22;2196;47.422;9.656;2022-08-27T01:32:50;18.30;99.90
4366;DHT22;2196;47.422;9.656;2022-08-27T01:35:17;18.30;99.90
4366;DHT22;2196;47.422;9.656;2022-08-27T01:37:47;18.30;99.90
4366;DHT22;2196;47.422;9.656;2022-08-27T01:40:15;18.30;99.90
4366;DHT22;2196;47.422;9.656;2022-08-27T01:42:47;18.40;99.90
4366;DHT22;2196;47.422;9.656;2022-08-27T01:45:16;18.30;99.90
4366;DHT22;2196;47.422;9.656;2022-08-27T01:47:43;18.30;99.90
4366;DHT22;2196;47.422;9.656;2022-08-27T01:50:14;18.30;99.90
4366;DHT22;2196;47.422;9.656;2022-08-27T01:52:42;18.30;99.90
4366;DHT22;2196;47.422;9.656;2022-08-27T01:55:12;18.40;99.90
4366;DHT22;2196;47.422;9.656;2022-08-27T01:57:40;18.40;99.90
4366;DHT22;2196;47.422;9.656;2022-08-27T02:00:12;18.50;99.90
4366;DHT22;2196;47.422;9.656;2022-08-27T02:02:40;18.40;99.90
4366;DHT22;2196;47.422;9.656;2022-08-27T02:05:08;18.50;99.90
4366;DHT22;2196;47.422;9.656;2022-08-27T02:07:35;18.50;99.90
4366;DHT22;2196;47.422;9.656;2022-08-27T02:10:03;18.40;99.90
4366;DHT22;2196;47.422;9.656;2022-08-27T02:12:31;18.40;99.90
4366;DHT22;2196;47.422;9.656;2022-08-27T02:14:58;18.40;99.90
4366;DHT22;2196;47.422;9.656;2022-08-27T02:17:26;18.40;99.90
4366;DHT22;2196;47.422;9.656;2022-08-27T02:19:53;18.40;99.90
4366;DHT22;2196;47.422;9.656;2022-08-27T02:22:20;18.40;99.90
4366;DHT22;2196;47.422;9.656;2022-08-27T02:24:47;18.40;99.90
4366;DHT22;2196;47.422;9.656;2022-08-27T02:27:14;18.40;99.90
4366;DHT22;2196;47.422;9.656;2022-08-27T02:29:41;18.40;99.90
4366;DHT22;2196;47.422;9.656;2022-08-27T02:32:08;18.40;99.90
4366;DHT22;2196;47.422;9.656;2022-08-27T02:34:36;18.40;99.90
4366;DHT22;2196;47.422;9.656;2022-08-27T02:37:03;18.40;99.90
4366;DHT22;2196;47.422;9.656;2022-08-27T02:39:32;18.40;99.90
4366;DHT22;2196;47.422;9.656;2022-08-27T02:41:59;18.50;99.90
4366;DHT22;2196;47.422;9.656;2022-08-27T02:44:26;18.50;99.90
4366;DHT22;2196;47.422;9.656;2022-08-27T02:46:53;18.50;99.90
4366;DHT22;2196;47.422;9.656;2022-08-27T02:49:20;18.50;99.90
4366;DHT22;2196;47.422;9.656;2022-08-27T02:51:52;18.50;99.90
4366;DHT22;2196;47.422;9.656;2022-08-27T02:54:19;18.50;99.90
4366;DHT22;2196;47.422;9.656;2022-08-27T02:56:46;18.50;99.90
4366;DHT22;2196;47.422;9.656;2022-08-27T02:59:13;18.50;99.90
4366;DHT22;2196;47.422;9.656;2022-08-27T03:01:40;18.50;99.90
4366;DHT22;2196;47.422;9.656;2022-08-27T03:04:07;18.50;99.90
4366;DHT22;2196;47.422;9.656;2022-08-27T03:06:34;18.50;99.90
4366;DHT22;2196;47.422;9.656;2022-08-27T03:09:03;18.50;99.90
4366;DHT22;2196;47.422;9.656;2022-08-27T03:11:30;18.50;99.90
4366;DHT22;2196;47.422;9.656;2022-08-27T03:13:58;18.50;99.90
4366;DHT22;2196;47.422;9.656;2022-08-27T03:16:25;18.50;99.90
4366;DHT22;2196;47.422;9.656;2022-08-27T03:18:52;18.50;99.90
4366;DHT22;2196;47.422;9.656;2022-08-27T03:21:19;18.40;99.90
4366;DHT22;2196;47.422;9.656;2022-08-27T03:23:47;18.50;99.90
4366;DHT22;2196;47.422;9.656;2022-08-27T03:26:16;18.40;99.90
4366;DHT22;2196;47.422;9.656;2022-08-27T03:28:43;18.40;99.90
4366;DHT22;2196;47.422;9.656;2022-08-27T03:31:14;18.40;99.90
4366;DHT22;2196;47.422;9.656;2022-08-27T03:33:45;18.30;99.90
4366;DHT22;2196;47.422;9.656;2022-08-27T03:36:13;18.40;99.90
4366;DHT22;2196;47.422;9.656;2022-08-27T03:38:40;18.40;99.90
4366;DHT22;2196;47.422;9.656;2022-08-27T03:41:07;18.40;99.90
4366;DHT22;2196;47.422;9.656;2022-08-27T03:43:36;18.40;99.90
4366;DHT22;2196;47.422;9.656;2022-08-27T03:46:03;18.40;99.90
4366;DHT22;2196;47.422;9.656;2022-08-27T03:48:30;18.40;99.90
4366;DHT22;2196;47.422;9.656;2022-08-27T03:51:02;18.40;99.90
4366;DHT22;2196;47.422;9.656;2022-08-27T03:53:30;18.40;99.90
4366;DHT22;2196;47.422;9.656;2022-08-27T03:55:57;18.40;99.90
4366;DHT22;2196;47.422;9.656;2022-08-27T03:58:24;18.40;99.90
4366;DHT22;2196;47.422;9.656;2022-08-27T04:00:53;18.40;99.90
4366;DHT22;2196;47.422;9.656;2022-08-27T04:03:19;18.40;99.90
4366;DHT22;2196;47.422;9.656;2022-08-27T04:05:51;18.40;99.90
4366;DHT22;2196;47.422;9.656;2022-08-27T04:08:18;18.40;99.90
4366;DHT22;2196;47.422;9.656;2022-08-27T04:10:46;18.40;99.90
4366;DHT22;2196;47.422;9.656;2022-08-27T04:13:13;18.40;99.90
4366;DHT22;2196;47.422;9.656;2022-08-27T04:15:41;18.40;99.90
4366;DHT22;2196;47.422;9.656;2022-08-27T04:18:11;18.40;99.90
4366;DHT22;2196;47.422;9.656;2022-08-27T04:20:41;18.40;99.90
4366;DHT22;2196;47.422;9.656;2022-08-27T04:23:08;18.40;99.90
4366;DHT22;2196;47.422;9.656;2022-08-27T04:25:38;18.40;99.90
4366;DHT22;2196;47.422;9.656;2022-08-27T04:28:06;18.30;99.90
4366;DHT22;2196;47.422;9.656;2022-08-27T04:30:37;18.30;99.90
4366;DHT22;2196;47.422;9.656;2022-08-27T04:33:07;18.30;99.90
4366;DHT22;2196;47.422;9.656;2022-08-27T04:35:35;18.30;99.90
4366;DHT22;2196;47.422;9.656;2022-08-27T04:38:03;18.40;99.90
4366;DHT22;2196;47.422;9.656;2022-08-27T04:40:30;18.30;99.90
4366;DHT22;2196;47.422;9.656;2022-08-27T04:43:13;18.30;99.90
4366;DHT22;2196;47.422;9.656;2022-08-27T04:45:42;18.30;99.90
4366;DHT22;2196;47.422;9.656;2022-08-27T04:48:11;18.30;99.90
4366;DHT22;2196;47.422;9.656;2022-08-27T04:50:41;18.30;99.90
4366;DHT22;2196;47.422;9.656;2022-08-27T04:53:09;18.30;99.90
4366;DHT22;2196;47.422;9.656;2022-08-27T04:55:40;18.30;99.90
4366;DHT22;2196;47.422;9.656;2022-08-27T04:58:09;18.40;99.90
4366;DHT22;2196;47.422;9.656;2022-08-27T05:00:41;18.40;99.90
4366;DHT22;2196;47.422;9.656;2022-08-27T05:03:08;18.40;99.90
4366;DHT22;2196;47.422;9.656;2022-08-27T05:05:35;18.40;99.90
4366;DHT22;2196;47.422;9.656;2022-08-27T05:08:04;18.40;99.90
4366;DHT22;2196;47.422;9.656;2022-08-27T05:10:39;18.40;99.90
4366;DHT22;2196;47.422;9.656;2022-08-27T05:13:10;18.40;99.90
4366;DHT22;2196;47.422;9.656;2022-08-27T05:15:38;18.40;99.90
4366;DHT22;2196;47.422;9.656;2022-08-27T05:18:06;18.50;99.90
4366;DHT22;2196;47.422;9.656;2022-08-27T05:20:41;18.50;99.90
4366;DHT22;2196;47.422;9.656;2022-08-27T05:23:11;18.50;99.90
4366;DHT22;2196;47.422;9.656;2022-08-27T05:25:40;18.50;99.90
4366;DHT22;2196;47.422;9.656;2022-08-27T05:28:10;18.50;99.90
4366;DHT22;2196;47.422;9.656;2022-08-27T05:30:39;18.50;99.90
4366;DHT22;2196;47.422;9.656;2022-08-27T05:33:06;18.50;99.90
4366;DHT22;2196;47.422;9.656;2022-08-27T05:35:39;18.60;99.90
4366;DHT22;2196;47.422;9.656;2022-08-27T05:38:11;18.50;99.90
4366;DHT22;2196;47.422;9.656;2022-08-27T05:40:39;18.50;99.90
4366;DHT22;2196;47.422;9.656;2022-08-27T05:43:10;18.60;99.90
4366;DHT22;2196;47.422;9.656;2022-08-27T05:45:39;18.60;99.90
4366;DHT22;2196;47.422;9.656;2022-08-27T05:48:10;18.50;99.90
4366;DHT22;2196;47.422;9.656;2022-08-27T05:50:42;18.60;99.90
4366;DHT22;2196;47.422;9.656;2022-08-27T05:53:12;18.60;99.90
4366;DHT22;2196;47.422;9.656;2022-08-27T05:55:41;18.60;99.90
4366;DHT22;2196;47.422;9.656;2022-08-27T05:58:10;18.50;99.90
4366;DHT22;2196;47.422;9.656;2022-08-27T06:01:01;18.50;99.90
4366;DHT22;2196;47.422;9.656;2022-08-27T06:03:30;18.60;99.90
4366;DHT22;2196;47.422;9.656;2022-08-27T06:05:59;18.60;99.90
4366;DHT22;2196;47.422;9.656;2022-08-27T06:08:28;18.60;99.90
4366;DHT22;2196;47.422;9.656;2022-08-27T06:10:55;18.50;99.90
4366;DHT22;2196;47.422;9.656;2022-08-27T06:13:23;18.50;99.90
4366;DHT22;2196;47.422;9.656;2022-08-27T06:15:50;18.50;99.90
4366;DHT22;2196;47.422;9.656;2022-08-27T06:18:25;18.60;99.90
4366;DHT22;2196;47.422;9.656;2022-08-27T06:20:52;18.60;99.90
4366;DHT22;2196;47.422;9.656;2022-08-27T06:23:20;18.60;99.90
4366;DHT22;2196;47.422;9.656;2022-08-27T06:25:48;18.70;99.90
4366;DHT22;2196;47.422;9.656;2022-08-27T06:28:16;18.70;99.90
4366;DHT22;2196;47.422;9.656;2022-08-27T06:30:45;18.80;99.90
4366;DHT22;2196;47.422;9.656;2022-08-27T06:33:12;18.80;99.90
4366;DHT22;2196;47.422;9.656;2022-08-27T06:35:40;18.90;99.90
4366;DHT22;2196;47.422;9.656;2022-08-27T06:38:10;18.90;99.90
4366;DHT22;2196;47.422;9.656;2022-08-27T06:40:39;18.90;99.90
4366;DHT22;2196;47.422;9.656;2022-08-27T06:43:08;18.90;99.90
4366;DHT22;2196;47.422;9.656;2022-08-27T06:45:37;18.90;99.90
4366;DHT22;2196;47.422;9.656;2022-08-27T06:48:04;18.90;99.90
4366;DHT22;2196;47.422;9.656;2022-08-27T06:50:37;19.00;99.90
4366;DHT22;2196;47.422;9.656;2022-08-27T06:53:27;19.00;99.90
4366;DHT22;2196;47.422;9.656;2022-08-27T06:55:54;19.00;99.90
4366;DHT22;2196;47.422;9.656;2022-08-27T06:58:22;19.10;99.90
4366;DHT22;2196;47.422;9.656;2022-08-27T07:00:49;19.10;99.90
4366;DHT22;2196;47.422;9.656;2022-08-27T07:03:16;19.10;99.90
4366;DHT22;2196;47.422;9.656;2022-08-27T07:05:44;19.30;99.90
4366;DHT22;2196;47.422;9.656;2022-08-27T07:08:12;19.30;99.90
4366;DHT22;2196;47.422;9.656;2022-08-27T07:10:39;19.40;99.90
4366;DHT22;2196;47.422;9.656;2022-08-27T07:13:09;19.40;99.90
4366;DHT22;2196;47.422;9.656;2022-08-27T07:15:38;19.50;99.90
4366;DHT22;2196;47.422;9.656;2022-08-27T07:18:09;19.60;99.90
4366;DHT22;2196;47.422;9.656;2022-08-27T07:20:39;19.70;99.90
4366;DHT22;2196;47.422;9.656;2022-08-27T07:23:07;19.80;99.90
4366;DHT22;2196;47.422;9.656;2022-08-27T07:25:40;19.90;99.90
4366;DHT22;2196;47.422;9.656;2022-08-27T07:28:11;20.00;99.90
4366;DHT22;2196;47.422;9.656;2022-08-27T07:30:39;20.00;99.90
4366;DHT22;2196;47.422;9.656;2022-08-27T07:33:07;19.90;99.90
4366;DHT22;2196;47.422;9.656;2022-08-27T07:35:34;20.00;99.90
4366;DHT22;2196;47.422;9.656;2022-08-27T07:38:01;20.00;99.90
4366;DHT22;2196;47.422;9.656;2022-08-27T07:40:28;20.10;99.90
4366;DHT22;2196;47.422;9.656;2022-08-27T07:42:55;20.40;99.90
4366;DHT22;2196;47.422;9.656;2022-08-27T07:45:46;20.40;99.90
4366;DHT22;2196;47.422;9.656;2022-08-27T07:48:15;20.60;99.90
4366;DHT22;2196;47.422;9.656;2022-08-27T07:50:42;20.90;99.90
4366;DHT22;2196;47.422;9.656;2022-08-27T07:53:11;20.80;99.90
4366;DHT22;2196;47.422;9.656;2022-08-27T07:55:38;20.80;99.90
4366;DHT22;2196;47.422;9.656;2022-08-27T07:58:05;21.00;99.90
4366;DHT22;2196;47.422;9.656;2022-08-27T08:00:36;21.20;99.90
4366;DHT22;2196;47.422;9.656;2022-08-27T08:03:04;21.40;99.90
4366;DHT22;2196;47.422;9.656;2022-08-27T08:05:31;21.70;99.90
4366;DHT22;2196;47.422;9.656;2022-08-27T08:07:58;21.90;99.90
4366;DHT22;2196;47.422;9.656;2022-08-27T08:10:25;22.00;99.90
4366;DHT22;2196;47.422;9.656;2022-08-27T08:12:52;22.00;99.90
4366;DHT22;2196;47.422;9.656;2022-08-27T08:15:20;21.80;99.90
4366;DHT22;2196;47.422;9.656;2022-08-27T08:17:47;21.70;99.90
4366;DHT22;2196;47.422;9.656;2022-08-27T08:20:15;21.60;99.90
4366;DHT22;2196;47.422;9.656;2022-08-27T08:22:42;21.70;99.90
4366;DHT22;2196;47.422;9.656;2022-08-27T08:25:10;21.60;99.90
4366;DHT22;2196;47.422;9.656;2022-08-27T08:27:39;21.70;99.90
4366;DHT22;2196;47.422;9.656;2022-08-27T08:30:07;21.70;99.90
4366;DHT22;2196;47.422;9.656;2022-08-27T08:32:35;21.90;99.90
4366;DHT22;2196;47.422;9.656;2022-08-27T08:35:03;22.00;99.90
4366;DHT22;2196;47.422;9.656;2022-08-27T08:37:32;22.30;99.90
4366;DHT22;2196;47.422;9.656;2022-08-27T08:39:59;22.40;99.90
4366;DHT22;2196;47.422;9.656;2022-08-27T08:42:30;23.00;99.90
4366;DHT22;2196;47.422;9.656;2022-08-27T08:45:02;23.10;99.90
4366;DHT22;2196;47.422;9.656;2022-08-27T08:47:40;23.10;99.90
4366;DHT22;2196;47.422;9.656;2022-08-27T08:50:12;22.90;99.90
4366;DHT22;2196;47.422;9.656;2022-08-27T08:52:44;22.80;99.90
4366;DHT22;2196;47.422;9.656;2022-08-27T08:55:28;22.80;99.90
4366;DHT22;2196;47.422;9.656;2022-08-27T08:58:14;22.90;99.90
4366;DHT22;2196;47.422;9.656;2022-08-27T09:00:44;22.80;99.90
4366;DHT22;2196;47.422;9.656;2022-08-27T09:03:13;22.60;99.90
4366;DHT22;2196;47.422;9.656;2022-08-27T09:05:44;22.70;99.90
4366;DHT22;2196;47.422;9.656;2022-08-27T09:08:17;22.80;99.90
4366;DHT22;2196;47.422;9.656;2022-08-27T09:10:51;22.70;99.90
4366;DHT22;2196;47.422;9.656;2022-08-27T09:13:24;22.60;99.90
4366;DHT22;2196;47.422;9.656;2022-08-27T09:15:56;22.60;99.90
4366;DHT22;2196;47.422;9.656;2022-08-27T09:18:23;22.60;99.90
4366;DHT22;2196;47.422;9.656;2022-08-27T09:20:56;22.40;99.90
4366;DHT22;2196;47.422;9.656;2022-08-27T09:23:31;22.30;99.90
4366;DHT22;2196;47.422;9.656;2022-08-27T09:26:02;22.30;99.90
4366;DHT22;2196;47.422;9.656;2022-08-27T09:28:29;22.40;99.90
4366;DHT22;2196;47.422;9.656;2022-08-27T09:31:16;22.40;99.90
4366;DHT22;2196;47.422;9.656;2022-08-27T09:33:43;22.40;99.90
4366;DHT22;2196;47.422;9.656;2022-08-27T09:36:12;22.40;99.90
4366;DHT22;2196;47.422;9.656;2022-08-27T09:38:50;22.40;99.90
4366;DHT22;2196;47.422;9.656;2022-08-27T09:41:22;22.40;99.90
4366;DHT22;2196;47.422;9.656;2022-08-27T09:43:56;22.60;99.90
4366;DHT22;2196;47.422;9.656;2022-08-27T09:46:24;22.60;99.90
4366;DHT22;2196;47.422;9.656;2022-08-27T09:48:52;22.80;99.90
4366;DHT22;2196;47.422;9.656;2022-08-27T09:51:22;22.90;99.90
4366;DHT22;2196;47.422;9.656;2022-08-27T09:53:54;23.00;99.90
4366;DHT22;2196;47.422;9.656;2022-08-27T09:56:27;23.10;99.90
4366;DHT22;2196;47.422;9.656;2022-08-27T09:59:00;23.10;99.90
4366;DHT22;2196;47.422;9.656;2022-08-27T10:01:30;23.10;99.90
4366;DHT22;2196;47.422;9.656;2022-08-27T10:04:07;23.20;99.90
4366;DHT22;2196;47.422;9.656;2022-08-27T10:06:35;23.50;99.90
4366;DHT22;2196;47.422;9.656;2022-08-27T10:09:08;23.60;99.90
4366;DHT22;2196;47.422;9.656;2022-08-27T10:11:39;23.40;99.90
4366;DHT22;2196;47.422;9.656;2022-08-27T10:14:12;23.20;99.90
4366;DHT22;2196;47.422;9.656;2022-08-27T10:16:56;23.30;99.90
4366;DHT22;2196;47.422;9.656;2022-08-27T10:19:41;23.30;99.90
4366;DHT22;2196;47.422;9.656;2022-08-27T10:22:23;23.30;99.90
4366;DHT22;2196;47.422;9.656;2022-08-27T10:25:07;23.40;99.90
4366;DHT22;2196;47.422;9.656;2022-08-27T10:27:41;23.30;99.90
4366;DHT22;2196;47.422;9.656;2022-08-27T10:30:12;23.40;99.90
4366;DHT22;2196;47.422;9.656;2022-08-27T10:32:55;23.30;99.90
4366;DHT22;2196;47.422;9.656;2022-08-27T10:35:31;23.40;99.90
4366;DHT22;2196;47.422;9.656;2022-08-27T10:38:11;23.40;99.90
4366;DHT22;2196;47.422;9.656;2022-08-27T10:40:45;23.50;99.90
4366;DHT22;2196;47.422;9.656;2022-08-27T10:43:27;23.40;99.90
4366;DHT22;2196;47.422;9.656;2022-08-27T10:46:05;23.20;99.90
4366;DHT22;2196;47.422;9.656;2022-08-27T10:48:49;23.10;99.90
4366;DHT22;2196;47.422;9.656;2022-08-27T10:51:23;23.10;99.90
4366;DHT22;2196;47.422;9.656;2022-08-27T10:53:56;23.20;99.90
4366;DHT22;2196;47.422;9.656;2022-08-27T10:56:30;23.30;99.90
4366;DHT22;2196;47.422;9.656;2022-08-27T10:59:06;23.30;99.90
4366;DHT22;2196;47.422;9.656;2022-08-27T11:01:44;23.30;99.90
4366;DHT22;2196;47.422;9.656;2022-08-27T11:04:16;23.20;99.90
4366;DHT22;2196;47.422;9.656;2022-08-27T11:06:50;23.30;99.90
4366;DHT22;2196;47.422;9.656;2022-08-27T11:09:21;23.40;99.90
4366;DHT22;2196;47.422;9.656;2022-08-27T11:11:56;23.50;99.90
4366;DHT22;2196;47.422;9.656;2022-08-27T11:14:36;23.60;99.90
4366;DHT22;2196;47.422;9.656;2022-08-27T11:17:08;23.60;99.90
4366;DHT22;2196;47.422;9.656;2022-08-27T11:19:45;23.60;99.90
4366;DHT22;2196;47.422;9.656;2022-08-27T11:22:16;23.80;99.90
4366;DHT22;2196;47.422;9.656;2022-08-27T11:24:49;23.80;99.90
4366;DHT22;2196;47.422;9.656;2022-08-27T11:27:23;23.90;99.90
4366;DHT22;2196;47.422;9.656;2022-08-27T11:29:54;24.00;99.90
4366;DHT22;2196;47.422;9.656;2022-08-27T11:32:31;24.00;99.90
4366;DHT22;2196;47.422;9.656;2022-08-27T11:35:05;24.10;99.90
4366;DHT22;2196;47.422;9.656;2022-08-27T11:37:50;24.00;99.90
4366;DHT22;2196;47.422;9.656;2022-08-27T11:40:37;23.70;99.90
4366;DHT22;2196;47.422;9.656;2022-08-27T11:43:13;23.60;99.90
4366;DHT22;2196;47.422;9.656;2022-08-27T11:45:53;23.50;99.90
4366;DHT22;2196;47.422;9.656;2022-08-27T11:48:24;23.50;99.90
4366;DHT22;2196;47.422;9.656;2022-08-27T11:50:57;23.50;99.90
4366;DHT22;2196;47.422;9.656;2022-08-27T11:53:29;23.50;99.90
4366;DHT22;2196;47.422;9.656;2022-08-27T11:55:56;23.60;99.90
4366;DHT22;2196;47.422;9.656;2022-08-27T11:58:27;23.50;99.90
4366;DHT22;2196;47.422;9.656;2022-08-27T12:00:55;23.50;99.90
4366;DHT22;2196;47.422;9.656;2022-08-27T12:03:27;23.50;99.90
4366;DHT22;2196;47.422;9.656;2022-08-27T12:06:18;23.70;99.90
4366;DHT22;2196;47.422;9.656;2022-08-27T12:08:45;23.90;99.90
4366;DHT22;2196;47.422;9.656;2022-08-27T12:11:30;24.00;99.90
4366;DHT22;2196;47.422;9.656;2022-08-27T12:14:10;24.10;99.90
4366;DHT22;2196;47.422;9.656;2022-08-27T12:16:45;24.30;99.90
4366;DHT22;2196;47.422;9.656;2022-08-27T12:19:28;24.40;99.90
4366;DHT22;2196;47.422;9.656;2022-08-27T12:22:06;24.40;99.90
4366;DHT22;2196;47.422;9.656;2022-08-27T12:24:48;24.70;99.90
4366;DHT22;2196;47.422;9.656;2022-08-27T12:27:31;24.80;99.90
4366;DHT22;2196;47.422;9.656;2022-08-27T12:30:05;24.90;99.90
4366;DHT22;2196;47.422;9.656;2022-08-27T12:32:37;25.10;99.90
4366;DHT22;2196;47.422;9.656;2022-08-27T12:35:09;25.30;99.90
4366;DHT22;2196;47.422;9.656;2022-08-27T12:37:41;25.30;99.90
4366;DHT22;2196;47.422;9.656;2022-08-27T12:40:16;25.10;99.90
4366;DHT22;2196;47.422;9.656;2022-08-27T12:42:44;25.10;99.90
4366;DHT22;2196;47.422;9.656;2022-08-27T12:45:24;25.00;99.90
4366;DHT22;2196;47.422;9.656;2022-08-27T12:47:52;24.90;99.90
4366;DHT22;2196;47.422;9.656;2022-08-27T12:50:23;24.80;99.90
4366;DHT22;2196;47.422;9.656;2022-08-27T12:53:16;24.70;99.90
4366;DHT22;2196;47.422;9.656;2022-08-27T12:55:56;24.80;99.90
4366;DHT22;2196;47.422;9.656;2022-08-27T12:58:35;24.70;99.90
4366;DHT22;2196;47.422;9.656;2022-08-27T13:01:31;24.70;99.90
4366;DHT22;2196;47.422;9.656;2022-08-27T13:04:02;24.60;99.90
4366;DHT22;2196;47.422;9.656;2022-08-27T13:06:32;24.60;99.90
4366;DHT22;2196;47.422;9.656;2022-08-27T13:09:00;24.70;99.90
4366;DHT22;2196;47.422;9.656;2022-08-27T13:11:30;24.80;99.90
4366;DHT22;2196;47.422;9.656;2022-08-27T13:14:08;25.00;99.90
4366;DHT22;2196;47.422;9.656;2022-08-27T13:16:38;25.00;99.90
4366;DHT22;2196;47.422;9.656;2022-08-27T13:19:13;25.00;99.90
4366;DHT22;2196;47.422;9.656;2022-08-27T13:21:46;25.00;99.90
4366;DHT22;2196;47.422;9.656;2022-08-27T13:24:19;24.90;99.90
4366;DHT22;2196;47.422;9.656;2022-08-27T13:26:48;24.80;99.90
4366;DHT22;2196;47.422;9.656;2022-08-27T13:29:18;24.70;99.90
4366;DHT22;2196;47.422;9.656;2022-08-27T13:31:47;24.40;99.90
4366;DHT22;2196;47.422;9.656;2022-08-27T13:34:18;24.30;99.90
4366;DHT22;2196;47.422;9.656;2022-08-27T13:36:54;24.20;99.90
4366;DHT22;2196;47.422;9.656;2022-08-27T13:39:22;24.00;99.90
4366;DHT22;2196;47.422;9.656;2022-08-27T13:41:50;23.90;99.90
4366;DHT22;2196;47.422;9.656;2022-08-27T13:44:20;23.90;99.90
4366;DHT22;2196;47.422;9.656;2022-08-27T13:46:52;23.90;99.90
4366;DHT22;2196;47.422;9.656;2022-08-27T13:49:25;24.00;99.90
4366;DHT22;2196;47.422;9.656;2022-08-27T13:51:58;24.20;99.90
4366;DHT22;2196;47.422;9.656;2022-08-27T13:54:27;24.20;99.90
4366;DHT22;2196;47.422;9.656;2022-08-27T13:56:57;24.40;99.90
4366;DHT22;2196;47.422;9.656;2022-08-27T13:59:29;24.60;99.90
4366;DHT22;2196;47.422;9.656;2022-08-27T14:02:14;24.80;99.90
4366;DHT22;2196;47.422;9.656;2022-08-27T14:04:46;24.90;99.90
4366;DHT22;2196;47.422;9.656;2022-08-27T14:07:19;24.90;99.90
4366;DHT22;2196;47.422;9.656;2022-08-27T14:09:50;24.90;99.90
4366;DHT22;2196;47.422;9.656;2022-08-27T14:12:24;24.80;99.90
4366;DHT22;2196;47.422;9.656;2022-08-27T14:14:52;24.60;99.90
4366;DHT22;2196;47.422;9.656;2022-08-27T14:17:36;24.60;99.90
4366;DHT22;2196;47.422;9.656;2022-08-27T14:20:05;24.60;99.90
4366;DHT22;2196;47.422;9.656;2022-08-27T14:22:32;24.60;99.90
4366;DHT22;2196;47.422;9.656;2022-08-27T14:25:00;24.70;99.90
4366;DHT22;2196;47.422;9.656;2022-08-27T14:27:28;24.80;99.90
4366;DHT22;2196;47.422;9.656;2022-08-27T14:29:56;24.90;99.90
4366;DHT22;2196;47.422;9.656;2022-08-27T14:32:25;25.00;99.90
4366;DHT22;2196;47.422;9.656;2022-08-27T14:34:52;25.10;99.90
4366;DHT22;2196;47.422;9.656;2022-08-27T14:37:19;25.20;99.90
4366;DHT22;2196;47.422;9.656;2022-08-27T14:39:46;25.30;99.90
4366;DHT22;2196;47.422;9.656;2022-08-27T14:42:13;25.10;99.90
4366;DHT22;2196;47.422;9.656;2022-08-27T14:44:42;25.10;99.90
4366;DHT22;2196;47.422;9.656;2022-08-27T14:47:10;25.20;99.90
4366;DHT22;2196;47.422;9.656;2022-08-27T14:49:40;25.10;99.90
4366;DHT22;2196;47.422;9.656;2022-08-27T14:52:09;25.10;99.90
4366;DHT22;2196;47.422;9.656;2022-08-27T14:54:37;25.00;99.90
4366;DHT22;2196;47.422;9.656;2022-08-27T14:57:05;24.90;99.90
4366;DHT22;2196;47.422;9.656;2022-08-27T14:59:33;24.80;99.90
4366;DHT22;2196;47.422;9.656;2022-08-27T15:02:04;24.80;99.90
4366;DHT22;2196;47.422;9.656;2022-08-27T15:04:32;24.60;99.90
4366;DHT22;2196;47.422;9.656;2022-08-27T15:07:00;24.60;99.90
4366;DHT22;2196;47.422;9.656;2022-08-27T15:09:27;24.50;99.90
4366;DHT22;2196;47.422;9.656;2022-08-27T15:11:55;24.40;99.90
4366;DHT22;2196;47.422;9.656;2022-08-27T15:14:25;24.30;99.90
4366;DHT22;2196;47.422;9.656;2022-08-27T15:16:53;24.30;99.90
4366;DHT22;2196;47.422;9.656;2022-08-27T15:19:21;24.30;99.90
4366;DHT22;2196;47.422;9.656;2022-08-27T15:21:50;24.10;99.90
4366;DHT22;2196;47.422;9.656;2022-08-27T15:24:21;24.10;99.90
4366;DHT22;2196;47.422;9.656;2022-08-27T15:26:50;23.90;99.90
4366;DHT22;2196;47.422;9.656;2022-08-27T15:29:18;23.70;99.90
4366;DHT22;2196;47.422;9.656;2022-08-27T15:31:45;23.80;99.90
4366;DHT22;2196;47.422;9.656;2022-08-27T15:34:12;23.70;99.90
4366;DHT22;2196;47.422;9.656;2022-08-27T15:36:40;23.70;99.90
4366;DHT22;2196;47.422;9.656;2022-08-27T15:39:07;23.70;99.90
4366;DHT22;2196;47.422;9.656;2022-08-27T15:41:37;23.70;99.90
4366;DHT22;2196;47.422;9.656;2022-08-27T15:44:04;23.70;99.90
4366;DHT22;2196;47.422;9.656;2022-08-27T15:46:32;23.60;99.90
4366;DHT22;2196;47.422;9.656;2022-08-27T15:48:59;23.60;99.90
4366;DHT22;2196;47.422;9.656;2022-08-27T15:51:28;23.50;99.90
4366;DHT22;2196;47.422;9.656;2022-08-27T15:53:56;23.50;99.90
4366;DHT22;2196;47.422;9.656;2022-08-27T15:56:24;23.60;99.90
4366;DHT22;2196;47.422;9.656;2022-08-27T15:58:52;23.60;99.90
4366;DHT22;2196;47.422;9.656;2022-08-27T16:01:25;23.30;99.90
4366;DHT22;2196;47.422;9.656;2022-08-27T16:03:53;23.20;99.90
4366;DHT22;2196;47.422;9.656;2022-08-27T16:06:21;23.20;99.90
4366;DHT22;2196;47.422;9.656;2022-08-27T16:08:48;23.20;99.90
4366;DHT22;2196;47.422;9.656;2022-08-27T16:11:15;23.00;99.90
4366;DHT22;2196;47.422;9.656;2022-08-27T16:13:43;22.90;99.90
4366;DHT22;2196;47.422;9.656;2022-08-27T16:16:11;22.50;99.90
4366;DHT22;2196;47.422;9.656;2022-08-27T16:18:40;22.40;99.90
4366;DHT22;2196;47.422;9.656;2022-08-27T16:21:08;22.30;99.90
4366;DHT22;2196;47.422;9.656;2022-08-27T16:23:35;22.30;99.90